Stations météo

réclame
Mon MeteoGroup
Norrkoping/Kungsangen, Suède (2571): Température de l'air & dewpoint: 15.08.2018 06:00:00 - 21.08.2018 06:00:00 (CEST)Norrkoping/Kungsangen, Suède (2571): Vitesse du vent: 15.08.2018 06:00:00 - 21.08.2018 06:00:00 (CEST)Norrkoping/Kungsangen, Suède (2571): Direction du vent: 15.08.2018 06:00:00 - 21.08.2018 06:00:00 (CEST)Norrkoping/Kungsangen, Suède (2571): visibility: 15.08.2018 06:00:00 - 21.08.2018 06:00:00 (CEST)
Date & Time tt [°C] td [°C] ff [km/h] ff [knt] dd vv [km]
21.08.2018 06:00:00 - - - - - -
21.08.2018 05:00:00 - - - - - -
21.08.2018 04:00:00 - - - - - -
21.08.2018 03:00:00 - - - - - -
21.08.2018 02:00:00 - - - - - -
21.08.2018 01:00:00 - - - - - -
21.08.2018 00:00:00 - - - - - -
20.08.2018 23:00:00 - - - - - -
20.08.2018 22:00:00 - - - - - -
20.08.2018 21:00:00 - - - - - -
20.08.2018 20:00:00 - - - - - -
20.08.2018 19:00:00 - - - - - -
20.08.2018 18:00:00 - - - - - -
20.08.2018 17:00:00 - - - - - -
20.08.2018 16:00:00 19,0 12,0 13 7 NNW 10
20.08.2018 15:00:00 19,0 14,0 13 7 NW 10
20.08.2018 14:00:00 17,0 15,0 8 4 NW 10
20.08.2018 13:00:00 16,0 15,0 5 3 NW 10
20.08.2018 12:00:00 15,0 15,0 8 4 NNE 8
20.08.2018 11:00:00 14,0 14,0 5 3 N 10
20.08.2018 10:00:00 14,0 14,0 11 6 NNE 8
20.08.2018 09:00:00 14,0 14,0 8 4 NNE 4,0
20.08.2018 08:00:00 14,0 14,0 8 4 NE 6
20.08.2018 07:00:00 15,0 14,0 5 3 NE 5
20.08.2018 06:00:00 15,0 14,0 4 2 NE 10
20.08.2018 05:00:00 15,0 15,0 5 3 E 10
20.08.2018 04:00:00 15,0 15,0 2 1 ENE 10
20.08.2018 03:00:00 15,0 14,0 4 2 ESE 9
20.08.2018 02:00:00 15,0 14,0 5 3 S 10
20.08.2018 01:00:00 15,0 14,0 8 4 SSW 10
20.08.2018 00:00:00 16,0 13,0 8 4 SW 10
19.08.2018 23:00:00 16,0 13,0 11 6 SW 10
19.08.2018 22:00:00 18,0 10,0 15 8 W 10
19.08.2018 21:00:00 19,0 9,0 9 5 WSW 10
19.08.2018 20:00:00 19,0 9,0 15 8 W 10
19.08.2018 19:00:00 21,0 8,0 24 13 W 10
19.08.2018 18:00:00 21,0 9,0 26 14 W 10
19.08.2018 17:00:00 22,0 8,0 29 16 WSW 10
19.08.2018 16:00:00 22,0 9,0 22 12 W 10
19.08.2018 15:00:00 23,0 8,0 29 16 WSW 10
19.08.2018 14:00:00 22,0 9,0 28 15 W 10
19.08.2018 13:00:00 21,0 10,0 29 16 W 10
19.08.2018 12:00:00 19,0 9,0 31 17 W 10
19.08.2018 11:00:00 20,0 10,0 28 15 WSW 10
19.08.2018 10:00:00 19,0 11,0 31 17 W 10
19.08.2018 09:00:00 18,0 10,0 31 17 W 10
19.08.2018 08:00:00 17,0 11,0 28 15 WSW 10
19.08.2018 07:00:00 16,0 11,0 28 15 W 10
19.08.2018 06:00:00 17,0 13,0 26 14 W 10
19.08.2018 05:00:00 18,0 14,0 26 14 WSW 10
19.08.2018 04:00:00 18,0 14,0 29 16 WSW 10
19.08.2018 03:00:00 18,0 14,0 28 15 WSW 10
19.08.2018 02:00:00 18,0 15,0 22 12 SW 10
19.08.2018 01:00:00 19,0 14,0 22 12 SW 10
19.08.2018 00:00:00 19,0 14,0 26 14 SW 10
18.08.2018 23:00:00 19,0 14,0 26 14 SW 10
18.08.2018 22:00:00 19,0 13,0 21 11 SW 10
18.08.2018 21:00:00 19,0 12,0 21 11 SW 10
18.08.2018 20:00:00 20,0 12,0 18 10 SSW 10
18.08.2018 19:00:00 20,0 12,0 24 13 SW 10
18.08.2018 18:00:00 21,0 11,0 26 14 SW 10
18.08.2018 17:00:00 21,0 10,0 22 12 SW 10
18.08.2018 16:00:00 22,0 9,0 24 13 SW 10
18.08.2018 15:00:00 22,0 8,0 24 13 WSW 10
18.08.2018 14:00:00 23,0 9,0 28 15 SW 10
18.08.2018 13:00:00 20,0 9,0 18 10 SW 10
18.08.2018 12:00:00 20,0 10,0 18 10 WSW 10
18.08.2018 11:00:00 20,0 11,0 18 10 WSW 10
18.08.2018 10:00:00 19,0 11,0 22 12 WSW 10
18.08.2018 09:00:00 17,0 13,0 16 9 WSW 10
18.08.2018 08:00:00 15,0 13,0 11 6 WSW 10
18.08.2018 07:00:00 13,0 12,0 11 6 WSW 10
18.08.2018 06:00:00 12,0 11,0 4 2 SSW 10
18.08.2018 05:00:00 12,0 11,0 4 2 SW 10
18.08.2018 04:00:00 12,0 10,0 5 3 WNW 10
18.08.2018 03:00:00 13,0 11,0 5 3 SW 10
18.08.2018 02:00:00 14,0 11,0 8 4 WSW 10
18.08.2018 01:00:00 14,0 11,0 11 6 WSW 10
18.08.2018 00:00:00 14,0 12,0 5 3 WSW 10
17.08.2018 23:00:00 14,0 13,0 8 4 WSW 10
17.08.2018 22:00:00 15,0 13,0 9 5 SW 10
17.08.2018 21:00:00 16,0 14,0 11 6 S 10
17.08.2018 20:00:00 17,0 13,0 8 4 WSW 10
17.08.2018 19:00:00 20,0 14,0 26 14 W 10
17.08.2018 18:00:00 23,0 15,0 21 11 W 10
17.08.2018 17:00:00 24,0 15,0 28 15 WNW 10
17.08.2018 16:00:00 23,0 17,0 15 8 W 9
17.08.2018 15:00:00 25,0 17,0 13 7 WSW 10
17.08.2018 14:00:00 23,0 20,0 11 6 W 10
17.08.2018 13:00:00 25,0 16,0 16 9 SW 10
17.08.2018 12:00:00 26,0 16,0 15 8 SSW 10
17.08.2018 11:00:00 24,0 16,0 5 3 S 10
17.08.2018 10:00:00 22,0 17,0 11 6 S 10
17.08.2018 09:00:00 21,0 16,0 15 8 S 10
17.08.2018 08:00:00 19,0 16,0 13 7 S 10
17.08.2018 07:00:00 18,0 15,0 8 4 SSE 10
17.08.2018 06:00:00 17,0 15,0 8 4 SE 10
17.08.2018 05:00:00 18,0 15,0 5 3 S 10
17.08.2018 04:00:00 19,0 15,0 9 5 SSW 10
17.08.2018 03:00:00 20,0 15,0 11 6 S 10
17.08.2018 02:00:00 20,0 15,0 18 10 S 10
17.08.2018 01:00:00 20,0 15,0 16 9 S 10
17.08.2018 00:00:00 20,0 16,0 15 8 S 10
16.08.2018 23:00:00 20,0 16,0 11 6 SSE 2,8
16.08.2018 22:00:00 21,0 16,0 13 7 SSE 10
16.08.2018 21:00:00 22,0 15,0 9 5 SSE 10
16.08.2018 20:00:00 23,0 15,0 11 6 S 10
16.08.2018 19:00:00 23,0 15,0 13 7 SSW 10
16.08.2018 18:00:00 24,0 15,0 16 9 SSW 10
16.08.2018 17:00:00 24,0 15,0 16 9 S 10
16.08.2018 16:00:00 25,0 15,0 18 10 SSW 10
16.08.2018 15:00:00 24,0 15,0 18 10 SSW 10
16.08.2018 14:00:00 24,0 15,0 15 8 SW 10
16.08.2018 13:00:00 24,0 15,0 15 8 SW 10
16.08.2018 12:00:00 22,0 15,0 15 8 SSW 10
16.08.2018 11:00:00 23,0 16,0 16 9 S 10
16.08.2018 10:00:00 21,0 16,0 11 6 S 10
16.08.2018 09:00:00 19,0 15,0 8 4 S 10
16.08.2018 08:00:00 16,0 15,0 4 2 E 10
16.08.2018 07:00:00 14,0 14,0 4 2 ESE 10
16.08.2018 06:00:00 13,0 12,0 4 2 E 10
16.08.2018 05:00:00 13,0 13,0 0 0 N 10
16.08.2018 04:00:00 13,0 12,0 5 3 ESE 10
16.08.2018 03:00:00 14,0 13,0 0 0 N 10
16.08.2018 02:00:00 14,0 12,0 5 3 E 10
16.08.2018 01:00:00 14,0 12,0 0 0 N 10
16.08.2018 00:00:00 15,0 12,0 2 1 - 10
15.08.2018 23:00:00 15,0 13,0 4 2 SE 10
15.08.2018 22:00:00 15,0 12,0 4 2 ESE 10
15.08.2018 21:00:00 16,0 12,0 4 2 SSE 10
15.08.2018 20:00:00 20,0 12,0 8 4 NW 10
15.08.2018 19:00:00 21,0 12,0 16 9 WNW 10
15.08.2018 18:00:00 20,0 13,0 15 8 W 10
15.08.2018 17:00:00 20,0 13,0 11 6 W 10
15.08.2018 16:00:00 20,0 13,0 8 4 WNW 10
15.08.2018 15:00:00 21,0 13,0 5 3 - 10
15.08.2018 14:00:00 19,0 14,0 11 6 WNW 10
15.08.2018 13:00:00 19,0 15,0 5 3 NW 10
15.08.2018 12:00:00 19,0 13,0 8 4 N 10
15.08.2018 11:00:00 18,0 14,0 5 3 - 10
15.08.2018 10:00:00 17,0 14,0 5 3 - 10
15.08.2018 09:00:00 17,0 14,0 5 3 - 10
15.08.2018 08:00:00 16,0 14,0 5 3 N 10
15.08.2018 07:00:00 15,0 14,0 9 5 NNW 10
15.08.2018 06:00:00 15,0 13,0 5 3 NW 10

tt = Température de l'air
td = dewpoint
ff = Vitesse du vent
dd = Direction du vent
vv = visibility

stations d'obs. à proximité